Time;durP1;ratioP1;P1;durP2;ratioP2;P2;SDS_P1;SDS_P2;PMS_P1;PMS_P2;Temp;Humidity;BMP_temperature;BMP_pressure;BME280_temperature;BME280_humidity;BME280_pressure;Samples;Min_cycle;Max_cycle;Signal;HPM_P1;HPM_P2
2023/03/26 00:00:39;;;;;;;18.58;2.65;;;8.90;99.90;;;;;;5075478;28;20117;-87
2023/03/26 00:03:06;;;;;;;21.88;2.95;;;8.90;99.90;;;;;;5095968;28;20036;-86
2023/03/26 00:05:33;;;;;;;26.60;2.90;;;8.90;99.90;;;;;;5096635;28;20056;-86
2023/03/26 00:08:00;;;;;;;12.25;2.03;;;9.00;99.90;;;;;;5098098;28;20087;-87
2023/03/26 00:10:27;;;;;;;14.00;2.63;;;9.00;99.90;;;;;;5094572;28;20048;-85
2023/03/26 00:12:54;;;;;;;18.75;2.40;;;9.00;99.90;;;;;;5095645;28;20040;-85
2023/03/26 00:15:20;;;;;;;24.70;3.03;;;8.90;99.90;;;;;;5094739;28;20040;-87
2023/03/26 00:17:47;;;;;;;27.70;3.58;;;8.90;99.90;;;;;;5095486;28;20094;-85
2023/03/26 00:20:14;;;;;;;28.88;3.25;;;8.80;99.90;;;;;;5096036;28;20052;-85
2023/03/26 00:22:41;;;;;;;18.52;3.05;;;8.90;99.90;;;;;;5094577;28;20044;-86
2023/03/26 00:25:08;;;;;;;29.58;3.65;;;8.80;99.90;;;;;;5096532;28;20516;-86
2023/03/26 00:27:35;;;;;;;11.65;2.40;;;8.80;99.90;;;;;;5096440;28;20052;-85
2023/03/26 00:30:02;;;;;;;23.45;2.90;;;8.80;99.90;;;;;;5095276;28;20417;-86
2023/03/26 00:32:29;;;;;;;34.30;3.00;;;8.80;99.90;;;;;;5096014;28;20048;-86
2023/03/26 00:34:56;;;;;;;19.48;2.20;;;8.80;99.90;;;;;;5078835;28;20048;-87
2023/03/26 00:37:25;;;;;;;20.98;2.83;;;8.80;99.90;;;;;;5095611;28;20048;-86
2023/03/26 00:39:52;;;;;;;24.13;3.38;;;8.80;99.90;;;;;;5080061;28;20048;-86
2023/03/26 00:42:26;;;;;;;21.92;4.03;;;8.70;99.90;;;;;;5094075;28;20040;-86
2023/03/26 00:44:59;;;;;;;24.85;2.55;;;8.70;99.90;;;;;;5095838;28;20489;-86
2023/03/26 00:47:27;;;;;;;13.60;2.35;;;8.70;99.90;;;;;;5079426;28;20048;-86
2023/03/26 00:49:53;;;;;;;22.05;2.90;;;8.70;99.90;;;;;;5094933;28;20142;-85
2023/03/26 00:52:20;;;;;;;23.50;3.55;;;8.70;99.90;;;;;;5097765;28;20122;-86
2023/03/26 00:54:47;;;;;;;27.70;3.38;;;8.70;99.90;;;;;;5116349;28;20061;-85
2023/03/26 00:57:13;;;;;;;18.73;3.03;;;8.80;99.90;;;;;;5097212;28;20042;-86
2023/03/26 00:59:54;;;;;;;27.10;3.40;;;8.80;99.90;;;;;;5082779;28;20043;-86
2023/03/26 01:02:21;;;;;;;18.75;3.20;;;8.80;99.90;;;;;;5096949;28;20039;-86
2023/03/26 01:04:48;;;;;;;22.00;3.25;;;8.80;99.90;;;;;;5116011;28;20040;-86
2023/03/26 01:07:15;;;;;;;23.60;2.72;;;8.80;99.90;;;;;;5081185;28;20046;-85
2023/03/26 01:09:43;;;;;;;24.52;2.35;;;8.80;99.90;;;;;;5096908;28;20043;-87
2023/03/26 01:12:10;;;;;;;22.17;3.42;;;8.80;99.90;;;;;;5097934;28;20059;-87
2023/03/26 01:14:37;;;;;;;17.30;3.05;;;8.80;99.90;;;;;;5081136;28;20043;-86
2023/03/26 01:17:05;;;;;;;27.13;2.78;;;8.80;99.90;;;;;;5079969;28;20063;-87
2023/03/26 01:19:32;;;;;;;25.25;2.65;;;8.90;99.90;;;;;;5080622;28;20484;-85
2023/03/26 01:22:02;;;;;;;18.58;4.22;;;8.90;99.90;;;;;;5114629;28;20114;-88
2023/03/26 01:24:28;;;;;;;18.13;2.90;;;8.90;99.90;;;;;;5081464;28;20044;-85
2023/03/26 01:26:56;;;;;;;29.35;3.45;;;8.90;99.90;;;;;;5097781;28;20458;-87
2023/03/26 01:29:22;;;;;;;16.58;2.50;;;8.90;99.90;;;;;;5096471;28;20512;-86
2023/03/26 01:31:49;;;;;;;15.02;2.55;;;8.90;99.90;;;;;;5080810;28;20036;-87
2023/03/26 01:34:16;;;;;;;15.38;2.67;;;8.90;99.90;;;;;;5097462;28;20062;-88
2023/03/26 01:36:43;;;;;;;17.30;2.83;;;8.90;99.90;;;;;;5096405;28;20039;-85
2023/03/26 01:39:10;;;;;;;27.63;2.83;;;8.90;99.90;;;;;;5080543;28;20057;-86
2023/03/26 01:41:36;;;;;;;18.45;2.83;;;8.90;99.90;;;;;;5097574;28;20062;-86
2023/03/26 01:44:03;;;;;;;15.05;3.28;;;8.90;99.90;;;;;;5096618;28;20138;-87
2023/03/26 01:46:32;;;;;;;24.42;2.95;;;8.80;99.90;;;;;;5080430;28;20544;-86
2023/03/26 01:48:59;;;;;;;16.00;3.13;;;8.80;99.90;;;;;;5096173;28;20108;-85
2023/03/26 01:51:26;;;;;;;25.50;2.50;;;8.80;99.90;;;;;;5080550;28;20066;-85
2023/03/26 01:53:53;;;;;;;15.82;3.03;;;8.80;99.90;;;;;;5115000;28;20155;-85
2023/03/26 01:56:20;;;;;;;19.40;3.42;;;8.80;99.90;;;;;;5096163;28;20142;-87
2023/03/26 01:58:46;;;;;;;22.83;2.95;;;8.80;99.90;;;;;;5097073;28;20458;-85
2023/03/26 02:01:15;;;;;;;17.30;2.47;;;8.90;99.90;;;;;;5097238;28;20109;-85
2023/03/26 02:03:42;;;;;;;17.58;3.17;;;8.90;99.90;;;;;;5079828;28;20473;-87
2023/03/26 02:06:10;;;;;;;18.25;3.03;;;8.90;99.90;;;;;;5080394;28;20061;-85
2023/03/26 02:08:36;;;;;;;19.67;2.55;;;8.90;99.90;;;;;;5096032;28;20040;-86
2023/03/26 02:11:03;;;;;;;19.58;3.13;;;8.90;99.90;;;;;;5097263;28;20135;-86
2023/03/26 02:13:30;;;;;;;11.73;2.63;;;8.90;99.90;;;;;;5097202;28;20040;-86
2023/03/26 02:15:57;;;;;;;25.40;3.33;;;8.90;99.90;;;;;;5096402;28;20411;-85
2023/03/26 02:18:24;;;;;;;13.48;2.30;;;8.90;99.90;;;;;;5080224;28;20040;-87
2023/03/26 02:20:51;;;;;;;19.65;3.08;;;8.90;99.90;;;;;;5096987;28;20047;-85
2023/03/26 02:23:19;;;;;;;14.00;2.33;;;8.90;99.90;;;;;;5079226;28;20047;-87
2023/03/26 02:25:45;;;;;;;12.30;2.20;;;8.90;99.90;;;;;;5080484;28;20054;-85
2023/03/26 02:28:12;;;;;;;15.85;2.13;;;8.90;99.90;;;;;;5096950;28;20113;-87
2023/03/26 02:30:39;;;;;;;18.70;2.17;;;8.90;99.90;;;;;;5078912;28;20113;-86
2023/03/26 02:33:06;;;;;;;24.45;4.53;;;8.80;99.90;;;;;;5096962;28;20101;-85
2023/03/26 02:35:39;;;;;;;12.88;2.83;;;8.80;99.90;;;;;;5080033;28;20055;-85
2023/03/26 02:38:09;;;;;;;18.00;2.08;;;8.80;99.90;;;;;;5080154;28;20039;-87
2023/03/26 02:40:36;;;;;;;14.95;2.80;;;8.80;99.90;;;;;;5079764;28;20550;-85
2023/03/26 02:43:03;;;;;;;9.80;2.00;;;8.80;99.90;;;;;;5095852;28;20159;-87
2023/03/26 02:45:31;;;;;;;9.50;1.98;;;8.80;99.90;;;;;;5097055;28;20493;-85
2023/03/26 02:48:23;;;;;;;14.35;1.83;;;8.80;99.90;;;;;;5101020;28;20506;-85
2023/03/26 02:50:53;;;;;;;13.55;1.95;;;8.80;99.90;;;;;;5096005;28;20097;-86
2023/03/26 02:53:53;;;;;;;11.38;1.90;;;8.80;99.90;;;;;;5066657;28;20099;-88
2023/03/26 02:56:48;;;;;;;15.13;2.70;;;8.90;99.90;;;;;;5063654;28;20390;-86
2023/03/26 02:59:23;;;;;;;6.55;1.80;;;8.80;99.90;;;;;;5079767;28;20103;-85
2023/03/26 03:02:09;;;;;;;14.35;1.90;;;8.90;99.90;;;;;;5082200;28;20305;-88
2023/03/26 03:04:36;;;;;;;7.50;1.63;;;8.90;99.90;;;;;;5080019;28;20438;-84
2023/03/26 03:07:03;;;;;;;8.48;1.40;;;8.90;99.90;;;;;;5080020;28;20051;-85
2023/03/26 03:09:30;;;;;;;11.55;1.80;;;8.90;99.90;;;;;;5078909;28;20062;-85
2023/03/26 03:12:16;;;;;;;7.22;1.50;;;8.90;99.90;;;;;;5082645;28;20127;-87
2023/03/26 03:14:43;;;;;;;6.63;1.48;;;8.80;99.90;;;;;;5079790;28;20063;-86
2023/03/26 03:17:10;;;;;;;8.32;1.77;;;8.80;99.90;;;;;;5078825;28;20040;-85
2023/03/26 03:19:36;;;;;;;6.18;1.75;;;8.90;99.90;;;;;;5079685;28;20055;-86
2023/03/26 03:22:03;;;;;;;11.13;1.77;;;8.90;99.90;;;;;;5062264;28;20090;-86
2023/03/26 03:24:37;;;;;;;9.05;1.77;;;8.90;99.90;;;;;;5079719;28;20474;-85
2023/03/26 03:27:04;;;;;;;11.82;2.13;;;8.80;99.90;;;;;;5063092;28;20055;-86
2023/03/26 03:29:40;;;;;;;7.85;1.60;;;8.80;99.90;;;;;;5078331;28;20047;-84
2023/03/26 03:32:27;;;;;;;6.60;1.60;;;8.80;99.90;;;;;;5042684;28;20047;-86
2023/03/26 03:34:58;;;;;;;7.03;1.55;;;8.80;99.90;;;;;;5063904;28;20064;-86
2023/03/26 03:37:26;;;;;;;8.48;2.35;;;8.70;99.90;;;;;;5078205;28;20051;-84
2023/03/26 03:39:54;;;;;;;6.13;1.65;;;8.70;99.90;;;;;;5062679;28;20443;-84
2023/03/26 03:42:23;;;;;;;10.35;1.58;;;8.70;99.90;;;;;;5078164;28;20074;-86
2023/03/26 03:44:53;;;;;;;8.55;1.38;;;8.70;99.90;;;;;;5062971;28;20474;-85
2023/03/26 03:47:48;;;;;;;5.10;1.30;;;8.70;99.90;;;;;;5030124;28;20045;-87
2023/03/26 03:50:21;;;;;;;6.60;1.60;;;8.70;99.90;;;;;;5077856;28;20478;-83
2023/03/26 03:53:14;;;;;;;7.68;1.50;;;8.70;99.90;;;;;;5081495;28;20043;-85
2023/03/26 03:55:51;;;;;;;8.38;1.42;;;8.70;99.90;;;;;;5094986;28;20047;-85
2023/03/26 03:58:20;;;;;;;6.07;1.20;;;8.60;99.90;;;;;;5095561;28;20059;-84
2023/03/26 04:00:49;;;;;;;7.00;1.52;;;8.60;99.90;;;;;;5079373;28;20032;-86
2023/03/26 04:03:37;;;;;;;5.03;1.40;;;8.60;99.90;;;;;;5095598;28;20051;-83
2023/03/26 04:06:10;;;;;;;11.57;1.58;;;8.50;99.90;;;;;;5079788;28;20432;-84
2023/03/26 04:08:38;;;;;;;5.47;1.35;;;8.50;99.90;;;;;;5093992;28;20058;-84
2023/03/26 04:11:06;;;;;;;6.28;1.35;;;8.40;99.90;;;;;;5095588;28;20044;-82
2023/03/26 04:14:02;;;;;;;4.30;1.20;;;8.40;99.90;;;;;;5024505;28;20512;-82
2023/03/26 04:16:47;;;;;;;4.28;1.17;;;8.40;99.90;;;;;;5079787;28;20436;-84
2023/03/26 04:19:14;;;;;;;6.18;1.40;;;8.30;99.90;;;;;;5094763;28;20044;-84
2023/03/26 04:21:41;;;;;;;6.25;1.27;;;8.30;99.90;;;;;;5095298;28;20059;-83
2023/03/26 04:24:09;;;;;;;7.30;1.52;;;8.20;99.90;;;;;;5094128;28;20102;-84
2023/03/26 04:27:03;;;;;;;9.32;1.13;;;8.20;99.90;;;;;;5093008;28;20037;-82
2023/03/26 04:29:37;;;;;;;3.88;1.20;;;8.30;99.90;;;;;;5093793;28;20130;-84
2023/03/26 04:32:07;;;;;;;8.65;1.20;;;8.20;99.90;;;;;;5095308;28;20110;-82
2023/03/26 04:34:35;;;;;;;3.17;1.45;;;8.20;99.90;;;;;;5095117;28;20043;-85
2023/03/26 04:37:09;;;;;;;2.53;1.05;;;8.10;99.90;;;;;;5093973;28;20131;-85
2023/03/26 04:39:43;;;;;;;3.47;0.80;;;8.00;99.90;;;;;;5094315;28;20036;-84
2023/03/26 04:42:48;;;;;;;4.70;1.05;;;7.90;99.90;;;;;;5052756;28;20052;-83
2023/03/26 04:45:25;;;;;;;5.10;1.02;;;7.80;99.90;;;;;;5037316;28;20041;-85
2023/03/26 04:47:55;;;;;;;1.08;0.80;;;7.80;99.90;;;;;;5060344;28;20079;-83
2023/03/26 04:50:21;;;;;;;3.25;0.88;;;7.80;99.90;;;;;;5093257;28;20122;-83
2023/03/26 04:52:48;;;;;;;2.25;1.00;;;7.80;99.90;;;;;;5094103;28;20067;-84
2023/03/26 04:55:33;;;;;;;2.50;0.90;;;7.90;99.90;;;;;;5094875;28;20059;-83
2023/03/26 04:58:08;;;;;;;1.77;0.75;;;7.80;99.90;;;;;;5094518;28;20072;-84
2023/03/26 05:00:52;;;;;;;1.75;0.80;;;7.80;99.90;;;;;;5080126;28;20106;-84
2023/03/26 05:03:19;;;;;;;1.63;0.82;;;7.90;99.90;;;;;;5093441;28;20469;-85
2023/03/26 05:05:48;;;;;;;4.35;1.48;;;7.90;99.90;;;;;;5094419;28;20074;-82
2023/03/26 05:08:15;;;;;;;3.05;0.95;;;7.90;99.90;;;;;;5093972;28;20055;-82
2023/03/26 05:10:41;;;;;;;1.77;0.80;;;8.00;99.90;;;;;;5076476;28;20462;-84
2023/03/26 05:13:13;;;;;;;2.40;1.00;;;8.00;99.90;;;;;;5078179;28;20059;-84
2023/03/26 05:15:45;;;;;;;2.25;0.90;;;8.00;99.90;;;;;;5093327;28;20047;-83
2023/03/26 05:18:35;;;;;;;5.85;1.08;;;8.00;99.90;;;;;;5086412;28;20441;-83
2023/03/26 05:21:02;;;;;;;3.33;1.00;;;8.10;99.90;;;;;;5076911;28;20044;-82
2023/03/26 05:23:29;;;;;;;1.85;0.95;;;8.10;99.90;;;;;;5093122;28;20063;-84
2023/03/26 05:26:20;;;;;;;1.88;0.70;;;8.10;99.90;;;;;;5089410;28;20052;-83
2023/03/26 05:28:47;;;;;;;3.38;1.20;;;8.10;99.90;;;;;;5092689;28;20048;-82
2023/03/26 05:31:22;;;;;;;2.97;1.00;;;8.10;99.90;;;;;;5094106;28;20131;-84
2023/03/26 05:33:53;;;;;;;3.92;0.90;;;8.00;99.90;;;;;;5094263;28;20160;-82
2023/03/26 05:36:21;;;;;;;3.67;1.00;;;8.00;99.90;;;;;;5093347;28;20478;-84
2023/03/26 05:39:25;;;;;;;5.40;1.20;;;8.00;99.90;;;;;;5093785;28;20043;-82
2023/03/26 05:41:51;;;;;;;2.38;0.95;;;8.00;99.90;;;;;;5092437;28;20059;-84
2023/03/26 05:44:21;;;;;;;3.70;1.00;;;7.90;99.90;;;;;;5077644;28;20063;-83
2023/03/26 05:46:48;;;;;;;1.83;0.93;;;7.90;99.90;;;;;;5077169;28;20040;-82
2023/03/26 05:49:20;;;;;;;;;;;7.90;99.90;;;;;;5092787;28;20062;-82
2023/03/26 05:51:47;;;;;;;3.45;1.05;;;7.90;99.90;;;;;;5093814;28;19927;-85
2023/03/26 05:54:33;;;;;;;2.72;0.93;;;7.90;99.90;;;;;;5093626;28;20052;-83
2023/03/26 05:57:18;;;;;;;1.15;0.88;;;7.90;99.90;;;;;;5092868;28;20437;-85
2023/03/26 06:00:03;;;;;;;9.45;1.60;;;7.90;99.90;;;;;;5094143;28;20063;-85
2023/03/26 06:02:45;;;;;;;5.60;1.10;;;7.90;99.90;;;;;;5093639;28;20144;-85
2023/03/26 06:05:25;;;;;;;5.05;1.30;;;7.90;99.90;;;;;;5094909;28;20048;-84
2023/03/26 06:08:07;;;;;;;;;;;7.80;99.90;;;;;;5079182;28;20478;-83
2023/03/26 06:10:36;;;;;;;3.08;1.05;;;7.80;99.90;;;;;;5076011;28;20018;-83
2023/03/26 06:13:03;;;;;;;8.23;1.10;;;7.80;99.90;;;;;;5094751;28;20088;-83
2023/03/26 06:15:30;;;;;;;3.17;1.00;;;7.70;99.90;;;;;;5092367;28;20210;-84
2023/03/26 06:17:59;;;;;;;4.40;1.10;;;7.70;99.90;;;;;;5093495;28;20043;-84
2023/03/26 06:20:42;;;;;;;1.30;0.80;;;7.80;99.90;;;;;;5079469;28;20044;-82
2023/03/26 06:23:25;;;;;;;2.60;0.95;;;7.70;99.90;;;;;;5092609;28;20044;-83
2023/03/26 06:26:18;;;;;;;2.08;0.93;;;7.70;99.90;;;;;;5063601;28;20055;-83
2023/03/26 06:29:00;;;;;;;2.33;0.90;;;7.70;99.90;;;;;;5091978;28;20062;-83
2023/03/26 06:31:37;;;;;;;2.33;0.93;;;7.60;99.90;;;;;;5093256;28;20056;-84
2023/03/26 06:34:19;;;;;;;2.08;1.00;;;7.60;99.90;;;;;;5082633;28;20055;-84
2023/03/26 06:36:47;;;;;;;2.42;1.00;;;7.60;99.90;;;;;;5096195;28;20071;-83
2023/03/26 06:39:14;;;;;;;2.53;1.00;;;7.60;99.90;;;;;;5096899;28;20035;-82
2023/03/26 06:41:51;;;;;;;4.50;1.00;;;7.60;99.90;;;;;;5067343;28;20071;-81
2023/03/26 06:44:35;;;;;;;3.13;1.00;;;7.60;99.90;;;;;;5060251;28;20044;-84
2023/03/26 06:47:20;;;;;;;1.20;0.75;;;7.60;99.90;;;;;;5063482;28;20055;-83
2023/03/26 06:50:16;;;;;;;7.18;1.10;;;7.60;99.90;;;;;;4988532;28;20130;-81
2023/03/26 06:53:15;;;;;;;2.92;1.05;;;7.60;99.90;;;;;;5022615;28;20037;-82
2023/03/26 06:56:02;;;;;;;2.92;1.00;;;7.60;99.90;;;;;;5075878;28;20118;-81
2023/03/26 06:59:07;;;;;;;9.82;1.02;;;7.50;99.90;;;;;;4984949;28;20489;-85
2023/03/26 07:01:52;;;;;;;3.88;1.10;;;7.50;99.90;;;;;;4995741;28;20053;-85
2023/03/26 07:04:57;;;;;;;3.85;1.10;;;7.60;99.90;;;;;;5054234;28;20076;-86
2023/03/26 07:07:42;;;;;;;3.80;1.20;;;7.60;99.90;;;;;;5062985;28;20505;-82
2023/03/26 07:10:32;;;;;;;4.38;1.10;;;7.50;99.90;;;;;;5076196;28;20068;-84
2023/03/26 07:13:28;;;;;;;2.63;1.02;;;7.50;99.90;;;;;;5045733;28;20491;-83
2023/03/26 07:16:14;;;;;;;1.58;0.90;;;7.50;99.90;;;;;;5061772;28;20372;-82
2023/03/26 07:19:07;;;;;;;8.60;1.60;;;7.50;99.90;;;;;;5046134;28;20474;-83
2023/03/26 07:21:36;;;;;;;3.60;1.33;;;7.50;99.90;;;;;;5059570;28;20348;-83
2023/03/26 07:24:13;;;;;;;0.70;0.70;;;7.40;99.90;;;;;;5043152;28;20072;-84
2023/03/26 07:27:00;;;;;;;1.60;0.90;;;7.30;99.90;;;;;;5045338;28;20040;-84
2023/03/26 07:29:33;;;;;;;3.58;1.05;;;7.40;99.90;;;;;;5023055;28;20493;-82
2023/03/26 07:32:07;;;;;;;1.05;0.73;;;7.30;99.90;;;;;;5023884;28;20045;-84
2023/03/26 07:34:33;;;;;;;2.33;0.88;;;7.30;99.90;;;;;;5039563;28;20052;-83
2023/03/26 07:40:11;;;;;;;3.92;1.00;;;7.30;99.90;;;;;;4995177;28;20413;-81
2023/03/26 07:43:09;;;;;;;3.33;0.80;;;7.30;99.90;;;;;;4981893;28;20117;-83
2023/03/26 07:48:59;;;;;;;1.35;0.95;;;7.30;99.90;;;;;;4995025;28;20109;-85
2023/03/26 07:51:34;;;;;;;2.00;0.80;;;7.30;99.90;;;;;;4980622;28;20069;-83
2023/03/26 07:54:20;;;;;;;7.53;1.05;;;7.40;99.90;;;;;;4993345;28;20377;-85
2023/03/26 08:00:15;;;;;;;2.30;0.90;;;7.40;99.90;;;;;;5015050;28;20049;-83
2023/03/26 08:02:44;;;;;;;1.42;0.90;;;7.40;99.90;;;;;;4993694;28;20042;-81
2023/03/26 08:05:36;;;;;;;2.70;0.90;;;7.50;99.90;;;;;;4982744;28;20042;-81
2023/03/26 08:08:25;;;;;;;2.88;1.08;;;7.60;99.90;;;;;;4997814;28;20117;-80
2023/03/26 08:11:19;;;;;;;3.78;1.00;;;7.60;99.90;;;;;;4998234;28;20545;-81
2023/03/26 08:13:50;;;;;;;2.17;1.00;;;7.60;99.90;;;;;;5001348;28;20139;-80
2023/03/26 08:16:21;;;;;;;3.30;1.00;;;7.60;99.90;;;;;;5057280;28;20041;-81
2023/03/26 08:18:48;;;;;;;4.07;1.07;;;7.70;99.90;;;;;;5041776;28;20114;-79
2023/03/26 08:21:15;;;;;;;10.60;1.20;;;7.60;99.90;;;;;;5075985;28;20041;-81
2023/03/26 08:23:45;;;;;;;6.47;1.42;;;7.60;99.90;;;;;;5040858;28;20079;-84
2023/03/26 08:26:17;;;;;;;4.60;1.40;;;7.60;99.90;;;;;;5058338;28;20037;-81
2023/03/26 08:28:44;;;;;;;4.07;1.40;;;7.60;99.90;;;;;;5056362;28;20036;-84
2023/03/26 08:31:12;;;;;;;2.95;1.30;;;7.60;99.90;;;;;;5057678;28;20045;-80
2023/03/26 08:33:40;;;;;;;4.97;2.40;;;7.60;99.90;;;;;;5058097;28;20040;-84
2023/03/26 08:36:08;;;;;;;3.22;1.30;;;7.70;99.90;;;;;;5056207;28;20110;-82
2023/03/26 08:38:34;;;;;;;3.97;1.30;;;7.80;99.90;;;;;;5056771;28;20037;-81
2023/03/26 08:41:01;;;;;;;3.92;1.55;;;7.70;99.90;;;;;;5057618;28;20410;-80
2023/03/26 08:43:27;;;;;;;3.42;1.45;;;7.70;99.90;;;;;;5049682;28;20044;-83
2023/03/26 08:45:54;;;;;;;5.63;1.60;;;7.70;99.90;;;;;;5056750;28;20045;-80
2023/03/26 08:48:21;;;;;;;4.78;1.52;;;7.80;99.90;;;;;;5073864;28;20037;-82
2023/03/26 08:50:49;;;;;;;4.25;1.55;;;7.80;99.90;;;;;;5073807;28;20079;-80
2023/03/26 08:53:17;;;;;;;2.75;1.15;;;7.80;99.90;;;;;;5062464;28;20558;-82
2023/03/26 08:55:45;;;;;;;3.42;1.15;;;7.80;99.90;;;;;;5054810;28;20056;-81
2023/03/26 08:58:12;;;;;;;2.88;1.17;;;7.90;99.90;;;;;;5056544;28;20055;-81
2023/03/26 09:00:38;;;;;;;6.22;1.20;;;8.00;99.90;;;;;;5071632;28;20376;-80
2023/03/26 09:03:05;;;;;;;5.00;1.10;;;8.00;99.90;;;;;;5092635;28;20377;-82
2023/03/26 09:05:32;;;;;;;3.00;1.10;;;8.00;99.90;;;;;;5095106;28;20058;-79
2023/03/26 09:07:59;;;;;;;3.53;1.10;;;8.00;99.90;;;;;;5093380;28;20138;-82
2023/03/26 09:10:25;;;;;;;4.28;1.15;;;8.00;99.90;;;;;;5093740;28;20043;-81
2023/03/26 09:12:52;;;;;;;1.90;0.93;;;8.00;99.90;;;;;;5093848;28;20044;-81
2023/03/26 09:15:19;;;;;;;3.88;1.25;;;7.90;99.90;;;;;;5092350;28;20048;-79
2023/03/26 09:17:45;;;;;;;2.35;0.98;;;7.90;99.90;;;;;;5094303;28;20048;-81
2023/03/26 09:20:13;;;;;;;2.90;1.00;;;7.90;99.90;;;;;;5094022;28;20382;-81
2023/03/26 09:22:40;;;;;;;3.40;1.20;;;7.90;99.90;;;;;;5092314;28;20040;-81
2023/03/26 09:25:07;;;;;;;3.08;1.13;;;8.00;99.90;;;;;;5093824;28;20047;-81
2023/03/26 09:27:35;;;;;;;1.95;0.98;;;8.00;99.90;;;;;;5093785;28;20047;-82
2023/03/26 09:30:02;;;;;;;2.75;1.58;;;8.10;99.90;;;;;;5091955;28;20070;-81
2023/03/26 09:32:28;;;;;;;2.58;1.10;;;8.10;99.90;;;;;;5094690;28;20044;-82
2023/03/26 09:34:55;;;;;;;2.63;1.13;;;8.10;99.90;;;;;;5077001;28;20052;-81
2023/03/26 09:37:22;;;;;;;2.22;1.10;;;8.20;99.90;;;;;;5091704;28;20493;-79
2023/03/26 09:39:49;;;;;;;3.72;1.13;;;8.20;99.90;;;;;;5093319;28;20044;-81
2023/03/26 09:42:16;;;;;;;2.97;1.10;;;8.20;99.90;;;;;;5092516;28;20044;-80
2023/03/26 09:44:42;;;;;;;8.02;1.30;;;8.30;99.90;;;;;;5093230;28;20055;-81
2023/03/26 09:47:09;;;;;;;3.42;1.20;;;8.30;99.90;;;;;;5094358;28;20351;-81
2023/03/26 09:49:36;;;;;;;3.05;1.10;;;8.40;99.90;;;;;;5092333;28;20059;-81
2023/03/26 09:52:02;;;;;;;4.40;1.23;;;8.40;99.90;;;;;;5092422;28;20040;-82
2023/03/26 09:54:30;;;;;;;4.00;1.50;;;8.50;99.90;;;;;;5093356;28;20048;-83
2023/03/26 09:56:58;;;;;;;3.63;1.38;;;8.50;99.90;;;;;;5092411;28;20094;-82
2023/03/26 09:59:25;;;;;;;3.90;1.25;;;8.60;99.90;;;;;;5085490;28;20044;-83
2023/03/26 10:01:51;;;;;;;3.42;1.40;;;8.70;99.90;;;;;;5072220;28;20459;-82
2023/03/26 10:04:19;;;;;;;2.85;1.27;;;8.70;99.90;;;;;;5074017;28;20040;-82
2023/03/26 10:06:46;;;;;;;4.47;1.25;;;8.80;99.90;;;;;;5058209;28;20110;-82
2023/03/26 10:09:13;;;;;;;4.80;1.63;;;8.80;99.90;;;;;;5077188;28;20032;-86
2023/03/26 10:11:39;;;;;;;3.13;1.30;;;8.90;99.90;;;;;;5077213;28;20040;-81
2023/03/26 10:14:06;;;;;;;4.90;1.50;;;9.00;99.90;;;;;;5077727;28;20037;-86
2023/03/26 10:16:33;;;;;;;3.33;1.30;;;9.10;99.90;;;;;;5075986;28;20041;-83
2023/03/26 10:19:08;;;;;;;4.47;1.43;;;9.10;99.90;;;;;;5076412;28;20051;-83
2023/03/26 10:21:42;;;;;;;6.13;1.58;;;9.20;99.90;;;;;;5076748;28;20037;-82
2023/03/26 10:24:13;;;;;;;3.97;1.60;;;9.20;99.90;;;;;;5077036;28;20036;-83
2023/03/26 10:26:43;;;;;;;6.38;1.60;;;9.30;99.90;;;;;;5076900;28;20037;-80
2023/03/26 10:29:32;;;;;;;4.18;1.60;;;9.30;99.90;;;;;;5074774;28;20063;-82
2023/03/26 10:32:08;;;;;;;3.53;1.40;;;9.40;99.90;;;;;;5060420;28;20122;-83
2023/03/26 10:34:54;;;;;;;4.18;1.60;;;9.30;99.90;;;;;;5061954;28;20057;-83
2023/03/26 10:37:32;;;;;;;5.72;1.73;;;9.20;99.90;;;;;;5074869;28;20051;-83
2023/03/26 10:40:08;;;;;;;4.53;1.60;;;9.30;99.90;;;;;;5077192;28;20060;-82
2023/03/26 10:42:53;;;;;;;4.32;1.50;;;9.50;99.90;;;;;;5075071;28;20122;-82
2023/03/26 10:45:31;;;;;;;3.95;1.25;;;9.50;99.90;;;;;;5076933;28;20373;-82
2023/03/26 10:47:58;;;;;;;4.43;1.45;;;9.40;99.90;;;;;;5059565;28;20032;-81
2023/03/26 10:50:27;;;;;;;5.78;1.63;;;9.40;99.90;;;;;;5074458;28;20048;-83
2023/03/26 10:53:00;;;;;;;5.07;1.40;;;9.30;99.90;;;;;;5059825;28;20064;-81
2023/03/26 10:55:27;;;;;;;6.15;1.60;;;9.30;99.90;;;;;;5076107;28;20513;-84
2023/03/26 10:57:58;;;;;;;4.20;1.50;;;9.40;99.90;;;;;;5075966;28;20091;-83
2023/03/26 11:00:25;;;;;;;5.07;1.50;;;9.50;99.90;;;;;;5076008;28;20045;-82
2023/03/26 11:03:08;;;;;;;4.82;2.03;;;9.50;99.90;;;;;;5075216;28;20489;-84
2023/03/26 11:05:41;;;;;;;4.05;1.70;;;9.40;99.90;;;;;;5075598;28;20052;-85
2023/03/26 11:08:15;;;;;;;5.40;1.83;;;9.30;99.90;;;;;;5060775;28;20218;-85
2023/03/26 11:10:42;;;;;;;7.10;1.50;;;9.30;99.90;;;;;;5075012;28;20056;-83
2023/03/26 11:13:09;;;;;;;5.28;1.40;;;9.30;99.90;;;;;;5075421;28;20147;-85
2023/03/26 11:15:35;;;;;;;3.92;1.40;;;9.40;99.90;;;;;;5074982;28;20245;-84
2023/03/26 11:18:02;;;;;;;3.85;1.20;;;9.40;99.90;;;;;;5074793;28;20041;-85
2023/03/26 11:20:32;;;;;;;2.75;1.23;;;9.30;99.90;;;;;;5075983;28;20049;-86
2023/03/26 11:23:00;;;;;;;5.70;1.27;;;9.30;99.90;;;;;;5060096;28;20099;-84
2023/03/26 11:25:26;;;;;;;3.17;1.13;;;9.20;99.90;;;;;;5076359;28;20059;-88
2023/03/26 11:27:54;;;;;;;3.75;1.15;;;9.20;99.90;;;;;;5059458;28;20037;-87
2023/03/26 11:30:21;;;;;;;4.05;1.10;;;9.20;99.90;;;;;;5059641;28;20388;-86
2023/03/26 11:32:48;;;;;;;4.97;1.30;;;9.20;99.90;;;;;;5075942;28;20095;-84
2023/03/26 11:35:15;;;;;;;3.65;1.27;;;9.30;99.90;;;;;;5058345;28;20087;-88
2023/03/26 11:37:41;;;;;;;2.63;1.13;;;9.40;99.90;;;;;;5075726;28;20036;-88
2023/03/26 11:40:27;;;;;;;;;;;;;;;;;;;;;
2023/03/26 11:43:15;;;;;;;4.10;1.20;;;9.60;99.90;;;;;;5074692;28;20041;-88
2023/03/26 11:45:42;;;;;;;5.95;1.00;;;9.70;99.90;;;;;;5076007;28;20055;-88
2023/03/26 11:48:13;;;;;;;3.65;1.27;;;9.80;99.90;;;;;;5059375;28;20108;-87
2023/03/26 11:50:42;;;;;;;3.38;1.30;;;9.80;99.90;;;;;;5074142;28;20040;-87
2023/03/26 11:53:15;;;;;;;2.72;1.00;;;9.90;99.90;;;;;;5059013;28;20115;-88
2023/03/26 11:56:03;;;;;;;3.20;1.38;;;10.10;99.90;;;;;;5061171;28;20130;-83
2023/03/26 11:58:30;;;;;;;3.40;1.23;;;10.00;99.90;;;;;;5075181;28;20048;-84
2023/03/26 12:00:59;;;;;;;5.30;1.30;;;10.20;99.90;;;;;;5058992;28;20044;-86
2023/03/26 12:03:29;;;;;;;3.22;1.10;;;10.50;99.90;;;;;;5074783;28;20052;-84
2023/03/26 12:05:56;;;;;;;2.20;1.08;;;10.40;99.90;;;;;;5074868;28;20506;-86
2023/03/26 12:08:23;;;;;;;3.78;1.13;;;10.40;99.90;;;;;;5075757;28;20051;-85
2023/03/26 12:10:51;;;;;;;4.53;1.30;;;10.20;99.90;;;;;;5057624;28;20490;-86
2023/03/26 12:13:18;;;;;;;2.28;1.00;;;10.10;99.90;;;;;;5074941;28;20099;-85
2023/03/26 12:15:44;;;;;;;2.83;1.20;;;10.10;99.90;;;;;;5056739;28;20044;-85
2023/03/26 12:18:11;;;;;;;7.03;1.17;;;10.00;99.90;;;;;;5074756;28;20044;-86
2023/03/26 12:20:48;;;;;;;2.22;1.00;;;10.00;99.90;;;;;;5059499;28;20055;-86
2023/03/26 12:23:15;;;;;;;3.65;1.00;;;9.90;99.90;;;;;;5075441;28;20418;-85
2023/03/26 12:25:50;;;;;;;4.35;1.25;;;9.90;99.90;;;;;;5059594;28;20122;-85
2023/03/26 12:28:17;;;;;;;3.72;1.15;;;9.70;99.90;;;;;;5057340;28;20048;-85
2023/03/26 12:30:47;;;;;;;2.97;1.00;;;9.60;99.90;;;;;;5073627;28;20483;-85
2023/03/26 12:33:15;;;;;;;2.85;1.10;;;9.60;99.90;;;;;;5074860;28;20106;-85
2023/03/26 12:35:43;;;;;;;2.25;1.02;;;9.60;99.90;;;;;;5073666;28;20071;-86
2023/03/26 12:38:29;;;;;;;1.63;0.85;;;9.60;99.90;;;;;;5059298;28;20112;-87
2023/03/26 12:55:53;;;;;;;;;;;;;;;;;;;;;
2023/03/26 13:02:12;;;;;;;12.93;2.13;;;9.10;99.90;;;;;;4974252;28;20736;-87
2023/03/26 13:04:44;;;;;;;8.32;1.80;;;9.20;99.90;;;;;;4978635;28;20073;-85
2023/03/26 13:07:29;;;;;;;8.60;1.58;;;9.20;99.90;;;;;;4980405;28;20050;-84
2023/03/26 13:09:56;;;;;;;8.20;1.80;;;9.10;99.90;;;;;;4977717;28;20053;-87
2023/03/26 13:12:22;;;;;;;12.10;2.65;;;9.00;99.90;;;;;;4978075;28;20054;-87
2023/03/26 13:14:49;;;;;;;16.35;2.05;;;9.00;99.90;;;;;;4994565;28;20058;-86
2023/03/26 13:20:21;;;;;;;9.20;2.45;;;8.90;99.90;;;;;;4979097;28;20444;-85
2023/03/26 13:22:48;;;;;;;11.63;2.25;;;8.90;99.90;;;;;;4997183;28;20049;-86
2023/03/26 13:25:15;;;;;;;15.23;2.58;;;9.00;99.90;;;;;;4997667;28;20085;-87
2023/03/26 13:27:43;;;;;;;8.75;2.05;;;9.00;99.90;;;;;;4996849;28;20447;-85
2023/03/26 13:30:10;;;;;;;15.50;2.58;;;9.00;99.90;;;;;;5048880;28;20060;-87
2023/03/26 13:32:38;;;;;;;11.70;2.83;;;9.00;99.90;;;;;;5037937;28;20047;-86
2023/03/26 13:35:05;;;;;;;11.35;2.17;;;8.90;99.90;;;;;;5020587;28;20537;-86
2023/03/26 13:37:32;;;;;;;13.10;2.35;;;8.80;99.90;;;;;;5019467;28;20467;-86
2023/03/26 13:39:58;;;;;;;10.02;2.28;;;8.60;99.90;;;;;;5037643;28;20071;-86
2023/03/26 13:42:25;;;;;;;12.73;2.00;;;8.60;99.90;;;;;;5019147;28;20130;-86
2023/03/26 13:44:52;;;;;;;16.08;2.17;;;8.50;99.90;;;;;;5021001;28;20045;-87
2023/03/26 13:47:31;;;;;;;15.77;2.45;;;8.50;99.90;;;;;;5036498;28;20375;-86
2023/03/26 13:49:57;;;;;;;11.45;2.13;;;8.60;99.90;;;;;;5019819;28;20549;-86
2023/03/26 13:52:24;;;;;;;15.25;2.85;;;8.50;99.90;;;;;;5020599;28;20091;-86